createdAt,value
2022-12-26T00:01:06.033Z,41.03
2022-12-26T00:03:33.088Z,42.97
2022-12-26T00:06:00.243Z,44.15
2022-12-26T00:08:27.457Z,42.65
2022-12-26T00:10:54.421Z,42.80
2022-12-26T00:13:39.659Z,43.03
2022-12-26T00:16:19.962Z,42.25
2022-12-26T00:18:48.624Z,40.53
2022-12-26T00:21:17.642Z,43.95
2022-12-26T00:23:45.963Z,40.92
2022-12-26T00:26:17.352Z,41.60
2022-12-26T00:28:45.437Z,42.03
2022-12-26T00:31:24.045Z,41.95
2022-12-26T00:33:51.238Z,42.65
2022-12-26T00:36:22.990Z,41.45
2022-12-26T00:38:51.573Z,41.70
2022-12-26T00:41:21.522Z,42.05
2022-12-26T00:43:49.887Z,42.05
2022-12-26T00:46:18.680Z,42.67
2022-12-26T00:48:46.773Z,41.67
2022-12-26T00:51:14.827Z,42.28
2022-12-26T00:53:42.233Z,42.03
2022-12-26T00:56:09.640Z,44.90
2022-12-26T00:58:37.086Z,41.80
2022-12-26T01:01:22.698Z,43.50
2022-12-26T01:03:51.318Z,42.42
2022-12-26T01:06:21.329Z,43.33
2022-12-26T01:08:48.442Z,44.33
2022-12-26T01:11:37.393Z,43.67
2022-12-26T01:14:06.513Z,44.88
2022-12-26T01:16:33.631Z,43.38
2022-12-26T01:19:00.679Z,43.53
2022-12-26T01:21:27.600Z,44.10
2022-12-26T01:23:56.187Z,41.72
2022-12-26T01:26:23.270Z,43.20
2022-12-26T01:28:52.546Z,42.85
2022-12-26T01:31:21.705Z,42.80
2022-12-26T01:33:49.318Z,41.90
2022-12-26T01:36:17.900Z,41.83
2022-12-26T01:38:45.908Z,40.72
2022-12-26T01:41:20.485Z,41.90
2022-12-26T01:44:02.692Z,39.25
2022-12-26T01:46:40.563Z,41.20
2022-12-26T01:49:21.367Z,40.38
2022-12-26T01:51:58.454Z,40.38
2022-12-26T01:54:37.913Z,40.58
2022-12-26T01:57:17.420Z,39.15
2022-12-26T01:59:46.631Z,40.63
2022-12-26T02:02:15.615Z,41.13
2022-12-26T02:05:07.973Z,41.58
2022-12-26T02:07:39.098Z,40.83
2022-12-26T02:10:13.354Z,39.83
2022-12-26T02:12:41.230Z,40.58
2022-12-26T02:15:15.586Z,40.03
2022-12-26T02:17:43.151Z,42.42
2022-12-26T02:20:17.363Z,41.28
2022-12-26T02:23:30.081Z,40.65
2022-12-26T02:26:42.945Z,42.30
2022-12-26T02:29:37.936Z,38.75
2022-12-26T02:32:28.069Z,43.67
2022-12-26T02:35:15.947Z,41.30
2022-12-26T02:38:35.939Z,40.90
2022-12-26T02:41:28.970Z,40.45
2022-12-26T02:44:55.462Z,40.83
2022-12-26T02:47:53.266Z,39.60
2022-12-26T02:51:25.179Z,41.78
2022-12-26T02:54:49.293Z,40.75
2022-12-26T03:00:39.298Z,37.60
2022-12-26T03:03:40.635Z,38.45
2022-12-26T03:06:43.922Z,39.83
2022-12-26T03:09:44.905Z,40.35
2022-12-26T03:12:39.168Z,39.92
2022-12-26T03:15:12.495Z,38.25
2022-12-26T03:17:46.417Z,39.70
2022-12-26T03:20:20.245Z,37.30
2022-12-26T03:22:58.072Z,39.85
2022-12-26T03:26:17.622Z,39.78
2022-12-26T03:28:44.896Z,38.63
2022-12-26T03:31:15.162Z,37.70
2022-12-26T03:34:05.170Z,38.33
2022-12-26T03:37:02.170Z,37.90
2022-12-26T03:40:27.675Z,36.90
2022-12-26T03:43:29.484Z,37.75
2022-12-26T03:46:54.663Z,36.10
2022-12-26T03:49:59.885Z,35.67
2022-12-26T03:53:10.325Z,36.30
2022-12-26T03:56:19.853Z,36.08
2022-12-26T03:59:27.253Z,36.55
2022-12-26T04:02:19.511Z,36.90
2022-12-26T04:05:05.537Z,35.58
2022-12-26T04:08:02.250Z,35.75
2022-12-26T04:11:03.183Z,35.83
2022-12-26T04:13:57.774Z,34.30
2022-12-26T04:17:05.154Z,34.80
2022-12-26T04:20:20.299Z,34.65
2022-12-26T04:23:22.484Z,33.35
2022-12-26T04:26:33.637Z,32.47
2022-12-26T04:29:19.178Z,31.90
2022-12-26T04:32:17.023Z,31.17
2022-12-26T04:35:30.486Z,30.90
2022-12-26T04:38:17.817Z,30.58
2022-12-26T04:41:10.179Z,29.20
2022-12-26T04:43:57.448Z,29.85
2022-12-26T04:46:26.014Z,29.50
2022-12-26T04:49:13.707Z,27.90
2022-12-26T04:51:40.658Z,27.63
2022-12-26T04:54:07.878Z,28.10
2022-12-26T04:56:35.234Z,27.45
2022-12-26T04:59:02.251Z,26.55
2022-12-26T05:01:48.050Z,27.20
2022-12-26T05:04:36.871Z,26.00
2022-12-26T05:07:35.004Z,24.30
2022-12-26T05:10:04.250Z,22.58
2022-12-26T05:12:31.258Z,23.13
2022-12-26T05:14:58.158Z,22.98
2022-12-26T05:17:43.299Z,21.30
2022-12-26T05:20:31.743Z,20.73
2022-12-26T05:23:20.789Z,19.70
2022-12-26T05:26:07.671Z,18.30
2022-12-26T05:28:43.603Z,17.17
2022-12-26T05:31:16.560Z,16.85
2022-12-26T05:36:56.515Z,16.45
2022-12-26T05:39:23.628Z,16.85
2022-12-26T05:41:50.649Z,15.45
2022-12-26T05:44:20.311Z,16.20
2022-12-26T05:46:47.349Z,15.88
2022-12-26T05:49:14.258Z,15.45
2022-12-26T05:51:41.292Z,15.45
2022-12-26T05:54:08.251Z,16.45
2022-12-26T05:56:35.224Z,15.05
2022-12-26T05:59:02.670Z,14.70
2022-12-26T06:01:31.022Z,15.20
2022-12-26T06:04:00.378Z,15.20
2022-12-26T06:06:27.690Z,15.57
2022-12-26T06:08:56.860Z,15.95
2022-12-26T06:11:26.447Z,15.90
2022-12-26T06:13:54.925Z,15.90
2022-12-26T06:27:35.726Z,21.92
2022-12-26T06:30:02.744Z,19.02
2022-12-26T06:32:30.664Z,17.92
2022-12-26T06:34:57.597Z,17.65
2022-12-26T06:37:24.603Z,17.92
2022-12-26T06:39:51.549Z,18.08
2022-12-26T06:42:18.467Z,18.55
2022-12-26T06:44:45.422Z,18.02
2022-12-26T06:47:12.367Z,17.52
2022-12-26T06:49:39.414Z,17.92
2022-12-26T06:52:08.883Z,16.85
2022-12-26T06:54:35.864Z,17.95
2022-12-26T06:57:02.953Z,16.85
2022-12-26T06:59:29.832Z,16.55
2022-12-26T07:01:56.884Z,17.63
2022-12-26T07:04:24.907Z,17.45
2022-12-26T07:06:51.832Z,16.75
2022-12-26T07:09:19.905Z,17.08
2022-12-26T07:11:49.955Z,16.60
2022-12-26T07:14:17.557Z,16.55
2022-12-26T07:16:45.911Z,16.45
2022-12-26T07:19:14.883Z,16.15
2022-12-26T07:21:43.161Z,15.45
2022-12-26T07:24:21.555Z,15.10
2022-12-26T07:26:49.719Z,14.35
2022-12-26T07:29:17.263Z,13.98
2022-12-26T07:31:44.770Z,14.38
2022-12-26T07:34:12.056Z,13.02
2022-12-26T07:36:41.294Z,13.18
2022-12-26T07:39:11.571Z,14.18
2022-12-26T07:41:56.692Z,15.20
2022-12-26T07:44:25.480Z,15.95
2022-12-26T07:46:53.172Z,14.70
2022-12-26T07:49:20.169Z,20.30
2022-12-26T07:51:47.129Z,23.63
2022-12-26T07:54:14.791Z,21.42
2022-12-26T07:56:42.560Z,84.00
2022-12-26T07:59:17.831Z,58.47
2022-12-26T08:01:44.969Z,76.88
2022-12-26T08:04:13.547Z,91.75
2022-12-26T08:06:40.693Z,50.55
2022-12-26T08:09:08.238Z,96.30
2022-12-26T08:11:35.907Z,144.20
2022-12-26T08:14:03.396Z,68.85
2022-12-26T08:16:32.825Z,36.92
2022-12-26T08:19:04.040Z,42.20
2022-12-26T08:21:31.410Z,50.50
2022-12-26T08:23:58.320Z,57.58
2022-12-26T08:26:26.360Z,23.33
2022-12-26T08:28:55.548Z,30.23
2022-12-26T08:33:57.692Z,31.67
2022-12-26T08:36:25.417Z,24.80
2022-12-26T08:38:52.682Z,25.77
2022-12-26T08:41:20.100Z,24.58
2022-12-26T08:44:25.627Z,24.83
2022-12-26T08:46:41.005Z,24.45
2022-12-26T08:49:07.941Z,41.15
2022-12-26T08:51:34.970Z,30.00
2022-12-26T08:54:02.504Z,50.78
2022-12-26T08:56:29.655Z,68.30
2022-12-26T08:58:59.359Z,57.60
2022-12-26T09:01:31.601Z,89.68
2022-12-26T09:04:02.586Z,54.13
2022-12-26T09:06:35.260Z,48.85
2022-12-26T09:09:04.716Z,49.75
2022-12-26T09:11:32.154Z,44.00
2022-12-26T09:14:03.235Z,49.55
2022-12-26T09:16:39.350Z,49.08
2022-12-26T09:19:11.697Z,49.45
2022-12-26T09:21:39.195Z,45.65
2022-12-26T09:24:11.688Z,43.03
2022-12-26T09:26:39.375Z,44.47
2022-12-26T09:29:06.962Z,39.70
2022-12-26T09:31:35.758Z,33.78
2022-12-26T09:34:05.397Z,43.40
2022-12-26T09:36:38.167Z,43.55
2022-12-26T09:39:06.779Z,40.97
2022-12-26T09:41:48.708Z,38.05
2022-12-26T09:44:48.351Z,37.53
2022-12-26T09:47:44.820Z,36.55
2022-12-26T09:50:28.240Z,34.45
2022-12-26T09:53:30.841Z,33.75
2022-12-26T09:56:04.033Z,31.10
2022-12-26T09:58:40.190Z,29.48
2022-12-26T10:01:23.579Z,30.80
2022-12-26T10:03:56.797Z,32.67
2022-12-26T10:19:54.020Z,28.38
2022-12-26T10:22:57.992Z,21.83
2022-12-26T10:26:17.040Z,20.63
2022-12-26T10:28:55.403Z,19.52
2022-12-26T10:31:41.208Z,17.75
2022-12-26T10:34:18.572Z,16.63
2022-12-26T10:37:12.727Z,15.95
2022-12-26T10:39:56.970Z,16.40
2022-12-26T10:42:40.237Z,20.25
2022-12-26T10:48:11.056Z,32.95
2022-12-26T10:50:40.255Z,14.13
2022-12-26T10:53:13.114Z,12.80
2022-12-26T10:55:40.135Z,12.30
2022-12-26T10:58:20.680Z,19.58
2022-12-26T11:00:47.935Z,12.35
2022-12-26T11:03:20.179Z,9.95
2022-12-26T11:06:07.680Z,10.25
2022-12-26T11:08:52.551Z,10.38
2022-12-26T11:11:50.993Z,12.50
2022-12-26T11:14:40.944Z,10.40
2022-12-26T11:17:34.627Z,10.52
2022-12-26T11:20:16.848Z,9.80
2022-12-26T11:22:46.678Z,9.15
2022-12-26T11:25:30.460Z,9.27
2022-12-26T11:27:59.856Z,9.15
2022-12-26T11:30:40.301Z,9.18
2022-12-26T11:33:14.008Z,9.98
2022-12-26T11:36:36.741Z,10.10
2022-12-26T11:39:23.696Z,9.38
2022-12-26T11:41:53.083Z,9.00
2022-12-26T11:44:38.417Z,9.15
2022-12-26T11:47:14.002Z,9.20
2022-12-26T11:50:09.897Z,8.48
2022-12-26T11:53:03.256Z,9.05
2022-12-26T11:55:33.487Z,8.55
2022-12-26T11:58:09.629Z,7.80
2022-12-26T12:00:51.742Z,8.07
2022-12-26T12:03:48.838Z,7.18
2022-12-26T12:06:29.785Z,7.43
2022-12-26T12:09:44.187Z,6.95
2022-12-26T12:12:48.269Z,6.03
2022-12-26T12:15:20.923Z,6.13
2022-12-26T12:18:57.224Z,6.05
2022-12-26T12:22:08.433Z,5.72
2022-12-26T12:25:09.062Z,5.85
2022-12-26T12:27:53.814Z,5.32
2022-12-26T12:30:46.214Z,5.93
2022-12-26T12:34:00.812Z,4.90
2022-12-26T12:36:52.233Z,4.93
2022-12-26T12:39:44.909Z,4.55
2022-12-26T12:42:29.728Z,4.40
2022-12-26T12:45:02.552Z,4.32
2022-12-26T12:48:07.331Z,4.25
2022-12-26T12:51:09.758Z,3.80
2022-12-26T12:54:07.496Z,3.03
2022-12-26T12:57:10.036Z,3.95
2022-12-26T13:00:14.809Z,4.18
2022-12-26T13:02:53.869Z,3.40
2022-12-26T13:05:45.122Z,3.25
2022-12-26T13:08:40.239Z,4.50
2022-12-26T13:11:38.325Z,3.08
2022-12-26T13:14:24.750Z,3.10
2022-12-26T13:17:11.385Z,2.58
2022-12-26T13:19:51.541Z,3.42
2022-12-26T13:23:15.018Z,2.97
2022-12-26T13:25:49.217Z,14.73
2022-12-26T13:28:29.063Z,9.80
2022-12-26T13:30:56.811Z,7.32
2022-12-26T13:33:24.215Z,3.30
2022-12-26T13:36:02.557Z,3.95
2022-12-26T13:39:01.396Z,3.67
2022-12-26T13:41:50.028Z,4.28
2022-12-26T13:44:19.991Z,3.78
2022-12-26T13:46:46.920Z,3.47
2022-12-26T13:49:37.045Z,3.42
2022-12-26T13:52:16.069Z,3.60
2022-12-26T13:54:50.418Z,3.40
2022-12-26T13:57:41.905Z,3.53
2022-12-26T14:00:12.571Z,3.35
2022-12-26T14:03:19.612Z,3.33
2022-12-26T14:06:24.939Z,3.50
2022-12-26T14:09:16.481Z,3.10
2022-12-26T14:11:55.405Z,3.25
2022-12-26T14:14:39.956Z,4.40
2022-12-26T14:17:41.012Z,4.50
2022-12-26T14:20:37.333Z,4.40
2022-12-26T14:23:32.471Z,4.10
2022-12-26T14:29:10.287Z,4.55
2022-12-26T14:31:59.851Z,4.90
2022-12-26T14:34:49.910Z,4.50
2022-12-26T14:37:47.124Z,4.85
2022-12-26T14:40:16.873Z,4.40
2022-12-26T14:43:17.550Z,4.70
2022-12-26T14:45:53.673Z,6.00
2022-12-26T14:48:24.054Z,5.40
2022-12-26T14:50:52.945Z,5.32
2022-12-26T14:53:28.900Z,5.13
2022-12-26T14:56:07.667Z,5.55
2022-12-26T14:59:10.423Z,6.63
2022-12-26T15:01:37.423Z,6.68
2022-12-26T15:04:10.402Z,5.82
2022-12-26T15:07:08.304Z,5.72
2022-12-26T15:10:02.975Z,5.45
2022-12-26T15:12:56.800Z,5.45
2022-12-26T15:15:47.540Z,7.05
2022-12-26T15:19:04.351Z,7.65
2022-12-26T15:22:08.616Z,6.32
2022-12-26T15:25:20.272Z,6.65
2022-12-26T15:28:15.690Z,6.82
2022-12-26T15:31:07.106Z,9.52
2022-12-26T15:33:57.452Z,6.55
2022-12-26T15:50:10.678Z,6.35
2022-12-26T15:53:03.758Z,6.45
2022-12-26T15:56:24.878Z,5.95
2022-12-26T15:59:41.791Z,5.57
2022-12-26T16:02:27.516Z,6.00
2022-12-26T16:05:09.058Z,5.45
2022-12-26T16:07:51.582Z,5.68
2022-12-26T16:10:24.667Z,6.10
2022-12-26T16:15:56.634Z,5.70
2022-12-26T16:18:30.931Z,5.18
2022-12-26T16:21:25.894Z,5.30
2022-12-26T16:23:57.921Z,5.85
2022-12-26T16:26:37.651Z,5.30
2022-12-26T16:29:05.923Z,5.40
2022-12-26T16:31:33.335Z,4.82
2022-12-26T16:34:01.527Z,5.10
2022-12-26T16:36:35.721Z,4.68
2022-12-26T16:39:09.933Z,5.13
2022-12-26T16:42:00.716Z,5.00
2022-12-26T16:44:32.614Z,4.80
2022-12-26T16:47:10.465Z,5.00
2022-12-26T16:49:41.646Z,5.30
2022-12-26T16:52:43.675Z,5.70
2022-12-26T16:55:36.229Z,6.00
2022-12-26T16:58:22.695Z,6.00
2022-12-26T17:01:08.494Z,5.82
2022-12-26T17:03:54.284Z,6.18
2022-12-26T17:06:54.895Z,6.10
2022-12-26T17:09:26.663Z,6.28
2022-12-26T17:12:02.604Z,6.53
2022-12-26T17:14:36.399Z,7.07
2022-12-26T17:17:37.621Z,7.05
2022-12-26T17:20:22.991Z,6.95
2022-12-26T17:22:51.353Z,6.65
2022-12-26T17:25:20.475Z,6.78
2022-12-26T17:28:08.741Z,7.47
2022-12-26T17:30:45.490Z,7.10
2022-12-26T17:33:24.748Z,7.13
2022-12-26T17:38:54.956Z,7.10
2022-12-26T17:41:22.311Z,6.78
2022-12-26T17:43:50.267Z,7.03
2022-12-26T17:46:18.541Z,9.70
2022-12-26T17:48:45.913Z,8.50
2022-12-26T17:51:18.038Z,7.90
2022-12-26T17:53:51.607Z,23.67
2022-12-26T17:56:27.352Z,39.97
2022-12-26T17:58:55.570Z,93.25
2022-12-26T18:01:22.720Z,78.38
2022-12-26T18:03:53.121Z,17.77
2022-12-26T18:06:22.229Z,8.48
2022-12-26T18:08:49.914Z,15.35
2022-12-26T18:11:16.917Z,13.02
2022-12-26T18:13:44.406Z,25.55
2022-12-26T18:16:25.096Z,16.17
2022-12-26T18:18:52.169Z,23.40
2022-12-26T18:21:19.139Z,27.00
2022-12-26T18:23:47.947Z,11.20
2022-12-26T18:26:26.061Z,17.67
2022-12-26T18:28:54.071Z,7.65
2022-12-26T18:31:24.088Z,9.13
2022-12-26T18:33:52.753Z,7.93
2022-12-26T18:36:23.254Z,8.80
2022-12-26T18:38:50.293Z,7.82
2022-12-26T18:41:21.731Z,7.28
2022-12-26T18:43:51.039Z,7.78
2022-12-26T18:46:31.257Z,12.27
2022-12-26T18:48:59.595Z,15.15
2022-12-26T18:51:30.555Z,12.50
2022-12-26T18:53:57.489Z,15.02
2022-12-26T18:56:24.631Z,11.32
2022-12-26T18:58:57.417Z,13.07
2022-12-26T19:01:26.161Z,11.77
2022-12-26T19:03:54.111Z,13.35
2022-12-26T19:06:28.302Z,11.88
2022-12-26T19:08:55.992Z,11.48
2022-12-26T19:11:23.400Z,11.80
2022-12-26T19:13:54.196Z,13.80
2022-12-26T19:16:27.064Z,9.48
2022-12-26T19:18:54.921Z,11.00
2022-12-26T19:21:22.360Z,6.78
2022-12-26T19:23:49.255Z,7.15
2022-12-26T19:26:18.970Z,6.55
2022-12-26T19:28:55.060Z,20.83
2022-12-26T19:31:23.306Z,24.00
2022-12-26T19:33:50.556Z,15.30
2022-12-26T19:36:17.519Z,8.77
2022-12-26T19:38:44.425Z,8.32
2022-12-26T19:41:15.173Z,6.30
2022-12-26T19:43:42.156Z,9.55
2022-12-26T19:46:12.772Z,7.80
2022-12-26T19:48:40.036Z,7.50
2022-12-26T19:51:14.064Z,7.90
2022-12-26T19:53:42.346Z,6.82
2022-12-26T19:56:18.196Z,6.30
2022-12-26T19:58:49.523Z,7.50
2022-12-26T20:01:25.297Z,7.05
2022-12-26T20:03:57.819Z,7.53
2022-12-26T20:06:27.283Z,5.95
2022-12-26T20:09:01.338Z,5.50
2022-12-26T20:11:35.424Z,5.72
2022-12-26T20:14:04.640Z,5.70
2022-12-26T20:17:04.455Z,5.38
2022-12-26T20:19:24.071Z,5.50
2022-12-26T20:21:51.716Z,6.70
2022-12-26T20:24:21.239Z,7.22
2022-12-26T20:26:49.309Z,5.30
2022-12-26T20:29:17.687Z,5.38
2022-12-26T20:31:47.338Z,6.10
2022-12-26T20:34:16.483Z,5.07
2022-12-26T20:36:44.007Z,5.35
2022-12-26T20:39:18.883Z,5.60
2022-12-26T20:41:47.160Z,5.88
2022-12-26T20:44:16.383Z,5.75
2022-12-26T20:46:45.260Z,5.60
2022-12-26T20:49:12.940Z,5.50
2022-12-26T20:51:43.755Z,5.97
2022-12-26T20:54:13.632Z,5.40
2022-12-26T20:56:41.375Z,5.60
2022-12-26T20:59:08.728Z,6.15
2022-12-26T21:01:37.505Z,5.93
2022-12-26T21:04:05.021Z,6.82
2022-12-26T21:06:35.769Z,6.93
2022-12-26T21:09:05.462Z,6.85
2022-12-26T21:11:38.821Z,7.10
2022-12-26T21:14:12.219Z,6.97
2022-12-26T21:16:46.834Z,7.20
2022-12-26T21:19:15.629Z,6.75
2022-12-26T21:21:53.104Z,7.13
2022-12-26T21:24:28.094Z,8.43
2022-12-26T21:26:55.995Z,7.65
2022-12-26T21:29:30.475Z,6.95
2022-12-26T21:32:00.002Z,7.85
2022-12-26T21:34:31.414Z,8.25
2022-12-26T21:37:17.754Z,7.20
2022-12-26T21:39:47.104Z,6.10
2022-12-26T21:42:14.019Z,6.93
2022-12-26T21:44:40.970Z,6.85
2022-12-26T21:47:08.468Z,6.10
2022-12-26T21:49:37.041Z,5.80
2022-12-26T21:52:06.962Z,4.22
2022-12-26T21:54:53.209Z,3.90
2022-12-26T21:57:21.040Z,3.70
2022-12-26T21:59:58.766Z,3.35
2022-12-26T22:02:51.647Z,3.08
2022-12-26T22:05:21.694Z,3.00
2022-12-26T22:07:56.777Z,3.35
2022-12-26T22:10:46.213Z,2.97
2022-12-26T22:13:13.382Z,3.10
2022-12-26T22:16:03.527Z,3.28
2022-12-26T22:18:41.830Z,2.97
2022-12-26T22:21:18.176Z,8.38
2022-12-26T22:23:45.882Z,5.03
2022-12-26T22:26:15.562Z,4.47
2022-12-26T22:41:23.420Z,1.90
2022-12-26T22:43:50.656Z,2.13
2022-12-26T22:46:18.118Z,2.53
2022-12-26T22:48:46.028Z,2.22
2022-12-26T22:51:23.241Z,2.55
2022-12-26T22:53:54.694Z,2.70
2022-12-26T22:56:21.860Z,2.28
2022-12-26T22:59:03.970Z,2.50
2022-12-26T23:01:32.244Z,2.40
2022-12-26T23:04:02.187Z,2.42
2022-12-26T23:06:33.898Z,2.38
2022-12-26T23:09:05.986Z,2.13
2022-12-26T23:11:35.911Z,2.10
2022-12-26T23:14:06.499Z,2.60
2022-12-26T23:16:50.682Z,2.17
2022-12-26T23:19:53.127Z,2.30
2022-12-26T23:22:20.456Z,2.05
2022-12-26T23:24:47.534Z,1.98
2022-12-26T23:27:33.133Z,2.15
2022-12-26T23:30:18.226Z,2.20
2022-12-26T23:32:51.841Z,2.35
2022-12-26T23:35:21.172Z,2.03
2022-12-26T23:37:48.528Z,2.30
2022-12-26T23:40:17.511Z,2.33
2022-12-26T23:42:44.471Z,2.78
2022-12-26T23:45:14.280Z,2.30
2022-12-26T23:47:44.595Z,2.40
2022-12-26T23:50:14.386Z,2.63
2022-12-26T23:52:41.661Z,2.40
2022-12-26T23:55:10.039Z,2.40
2022-12-26T23:57:37.086Z,2.50
